Terminal Aerodrome Forecast
Issued by NWS

Home | Current Version | Previous Version | Text Only | Print | Product List | Glossary On
Versions: 1 2 3 4 5 6 7 8 9 10 11 12
000
FTUS42 TJSJ 021700
TAFJMZ
TAF
TJMZ 021732Z 0218/0318 11004KT P6SM BKN040
     FM021900 27008KT P6SM VCTS BKN030CB
     FM022100 05005KT P6SM SCT030
     FM031430 24006KT P6SM SCT040=

USA.gov is the U.S. government's official web portal to all federal, state and local government web resources and services.